sensor_id;sensor_type;location;lat;lon;timestamp;pressure;altitude;pressure_sealevel;temperature
69785;BMP280;14177;51.520;6.764;2023-07-13T00:02:05;101143.88;;;18.04
69785;BMP280;14177;51.520;6.764;2023-07-13T00:04:32;101147.44;;;18.03
69785;BMP280;14177;51.520;6.764;2023-07-13T00:07:00;101154.38;;;18.04
69785;BMP280;14177;51.520;6.764;2023-07-13T00:09:27;101148.38;;;18.02
69785;BMP280;14177;51.520;6.764;2023-07-13T00:11:57;101142.19;;;18.03
69785;BMP280;14177;51.520;6.764;2023-07-13T00:14:27;101153.53;;;18.03
69785;BMP280;14177;51.520;6.764;2023-07-13T00:16:55;101148.38;;;18.02
69785;BMP280;14177;51.520;6.764;2023-07-13T00:19:22;101147.59;;;18.00
69785;BMP280;14177;51.520;6.764;2023-07-13T00:21:49;101148.38;;;18.02
69785;BMP280;14177;51.520;6.764;2023-07-13T00:24:18;101146.56;;;18.02
69785;BMP280;14177;51.520;6.764;2023-07-13T00:26:50;101154.44;;;18.02
69785;BMP280;14177;51.520;6.764;2023-07-13T00:29:17;101152.69;;;18.03
69785;BMP280;14177;51.520;6.764;2023-07-13T00:31:44;101152.69;;;18.03
69785;BMP280;14177;51.520;6.764;2023-07-13T00:34:11;101152.84;;;18.00
69785;BMP280;14177;51.520;6.764;2023-07-13T00:36:38;101153.03;;;17.97
69785;BMP280;14177;51.520;6.764;2023-07-13T00:39:06;101145.38;;;17.92
69785;BMP280;14177;51.520;6.764;2023-07-13T00:41:33;101154.47;;;17.87
69785;BMP280;14177;51.520;6.764;2023-07-13T00:44:00;101148.59;;;17.82
69785;BMP280;14177;51.520;6.764;2023-07-13T00:46:31;101149.81;;;17.76
69785;BMP280;14177;51.520;6.764;2023-07-13T00:49:06;101157.91;;;17.72
69785;BMP280;14177;51.520;6.764;2023-07-13T00:51:45;101154.63;;;17.68
69785;BMP280;14177;51.520;6.764;2023-07-13T00:54:30;101153.91;;;17.65
69785;BMP280;14177;51.520;6.764;2023-07-13T00:57:03;101161.19;;;17.60
69785;BMP280;14177;51.520;6.764;2023-07-13T00:59:33;101157.91;;;17.56
69785;BMP280;14177;51.520;6.764;2023-07-13T01:02:02;101158.91;;;17.54
69785;BMP280;14177;51.520;6.764;2023-07-13T01:04:30;101156.44;;;17.51
69785;BMP280;14177;51.520;6.764;2023-07-13T01:06:58;101151.28;;;17.49
69785;BMP280;14177;51.520;6.764;2023-07-13T01:09:27;101148.03;;;17.44
69785;BMP280;14177;51.520;6.764;2023-07-13T01:11:54;101152.47;;;17.44
69785;BMP280;14177;51.520;6.764;2023-07-13T01:14:21;101148.91;;;17.45
69785;BMP280;14177;51.520;6.764;2023-07-13T01:16:48;101151.59;;;17.43
69785;BMP280;14177;51.520;6.764;2023-07-13T01:19:28;101157.72;;;17.44
69785;BMP280;14177;51.520;6.764;2023-07-13T01:22:11;101154.06;;;17.46
69785;BMP280;14177;51.520;6.764;2023-07-13T01:24:46;101149.47;;;17.50
69785;BMP280;14177;51.520;6.764;2023-07-13T01:27:20;101155.44;;;17.53
69785;BMP280;14177;51.520;6.764;2023-07-13T01:29:47;101155.19;;;17.58
69785;BMP280;14177;51.520;6.764;2023-07-13T01:32:18;101160.44;;;17.58
69785;BMP280;14177;51.520;6.764;2023-07-13T01:34:54;101160.44;;;17.58
69785;BMP280;14177;51.520;6.764;2023-07-13T01:37:24;101153.47;;;17.57
69785;BMP280;14177;51.520;6.764;2023-07-13T01:39:52;101157.28;;;17.51
69785;BMP280;14177;51.520;6.764;2023-07-13T01:42:19;101159.41;;;17.45
69785;BMP280;14177;51.520;6.764;2023-07-13T01:44:47;101156.19;;;17.40
69785;BMP280;14177;51.520;6.764;2023-07-13T01:47:14;101153.94;;;17.32
69785;BMP280;14177;51.520;6.764;2023-07-13T01:49:41;101159.41;;;17.28
69785;BMP280;14177;51.520;6.764;2023-07-13T01:52:08;101156.09;;;17.24
69785;BMP280;14177;51.520;6.764;2023-07-13T01:54:35;101152.84;;;17.19
69785;BMP280;14177;51.520;6.764;2023-07-13T01:57:02;101158.34;;;17.15
69785;BMP280;14177;51.520;6.764;2023-07-13T01:59:30;101154.84;;;17.14
69785;BMP280;14177;51.520;6.764;2023-07-13T02:01:57;101160.97;;;17.15
69785;BMP280;14177;51.520;6.764;2023-07-13T02:04:24;101160.81;;;17.18
69785;BMP280;14177;51.520;6.764;2023-07-13T02:06:51;101166.84;;;17.20
69785;BMP280;14177;51.520;6.764;2023-07-13T02:09:18;101161.59;;;17.20
69785;BMP280;14177;51.520;6.764;2023-07-13T02:11:45;101170.38;;;17.19
69785;BMP280;14177;51.520;6.764;2023-07-13T02:14:12;101168.69;;;17.18
69785;BMP280;14177;51.520;6.764;2023-07-13T02:16:39;101183.84;;;17.13
69785;BMP280;14177;51.520;6.764;2023-07-13T02:19:07;101173.47;;;17.10
69785;BMP280;14177;51.520;6.764;2023-07-13T02:21:34;101176.28;;;17.07
69785;BMP280;14177;51.520;6.764;2023-07-13T02:24:01;101170.56;;;16.99
69785;BMP280;14177;51.520;6.764;2023-07-13T02:26:28;101176.13;;;16.93
69785;BMP280;14177;51.520;6.764;2023-07-13T02:28:55;101175.44;;;16.90
69785;BMP280;14177;51.520;6.764;2023-07-13T02:31:22;101168.69;;;16.84
69785;BMP280;14177;51.520;6.764;2023-07-13T02:33:49;101181.97;;;16.81
69785;BMP280;14177;51.520;6.764;2023-07-13T02:36:17;101183.75;;;16.81
69785;BMP280;14177;51.520;6.764;2023-07-13T02:38:45;101177.81;;;16.77
69785;BMP280;14177;51.520;6.764;2023-07-13T02:41:12;101170.03;;;16.76
69785;BMP280;14177;51.520;6.764;2023-07-13T02:43:40;101171.81;;;16.75
69785;BMP280;14177;51.520;6.764;2023-07-13T02:46:08;101181.34;;;16.76
69785;BMP280;14177;51.520;6.764;2023-07-13T02:48:38;101185.66;;;16.77
69785;BMP280;14177;51.520;6.764;2023-07-13T02:51:06;101184.75;;;16.78
69785;BMP280;14177;51.520;6.764;2023-07-13T02:53:34;101177.75;;;16.79
69785;BMP280;14177;51.520;6.764;2023-07-13T02:56:04;101182.47;;;16.72
69785;BMP280;14177;51.520;6.764;2023-07-13T02:58:31;101178.19;;;16.70
69785;BMP280;14177;51.520;6.764;2023-07-13T03:00:59;101180.19;;;16.65
69785;BMP280;14177;51.520;6.764;2023-07-13T03:03:27;101182.13;;;16.61
69785;BMP280;14177;51.520;6.764;2023-07-13T03:06:00;101187.44;;;16.60
69785;BMP280;14177;51.520;6.764;2023-07-13T03:08:33;101192.06;;;16.55
69785;BMP280;14177;51.520;6.764;2023-07-13T03:11:19;101192.94;;;16.55
69785;BMP280;14177;51.520;6.764;2023-07-13T03:13:55;101193.84;;;16.54
69785;BMP280;14177;51.520;6.764;2023-07-13T03:16:23;101189.59;;;16.52
69785;BMP280;14177;51.520;6.764;2023-07-13T03:18:52;101194.00;;;16.51
69785;BMP280;14177;51.520;6.764;2023-07-13T03:21:19;101190.50;;;16.51
69785;BMP280;14177;51.520;6.764;2023-07-13T03:23:46;101186.19;;;16.50
69785;BMP280;14177;51.520;6.764;2023-07-13T03:26:18;101196.53;;;16.53
69785;BMP280;14177;51.520;6.764;2023-07-13T03:28:47;101199.94;;;16.55
69785;BMP280;14177;51.520;6.764;2023-07-13T03:31:26;101202.34;;;16.59
69785;BMP280;14177;51.520;6.764;2023-07-13T03:33:56;101199.56;;;16.62
69785;BMP280;14177;51.520;6.764;2023-07-13T03:36:28;101199.41;;;16.65
69785;BMP280;14177;51.520;6.764;2023-07-13T03:39:00;101200.19;;;16.67
69785;BMP280;14177;51.520;6.764;2023-07-13T03:41:35;101200.81;;;16.72
69785;BMP280;14177;51.520;6.764;2023-07-13T03:44:03;101199.13;;;16.71
69785;BMP280;14177;51.520;6.764;2023-07-13T03:46:30;101214.72;;;16.74
69785;BMP280;14177;51.520;6.764;2023-07-13T03:48:58;101220.69;;;16.76
69785;BMP280;14177;51.520;6.764;2023-07-13T03:51:25;101213.94;;;16.72
69785;BMP280;14177;51.520;6.764;2023-07-13T03:53:52;101220.03;;;16.73
69785;BMP280;14177;51.520;6.764;2023-07-13T03:56:20;101218.25;;;16.73
69785;BMP280;14177;51.520;6.764;2023-07-13T03:58:49;101214.72;;;16.74
69785;BMP280;14177;51.520;6.764;2023-07-13T04:01:21;101218.31;;;16.72
69785;BMP280;14177;51.520;6.764;2023-07-13T04:03:49;101221.88;;;16.71
69785;BMP280;14177;51.520;6.764;2023-07-13T04:06:23;101231.69;;;16.67
69785;BMP280;14177;51.520;6.764;2023-07-13T04:08:57;101236.06;;;16.67
69785;BMP280;14177;51.520;6.764;2023-07-13T04:11:28;101230.13;;;16.63
69785;BMP280;14177;51.520;6.764;2023-07-13T04:13:56;101237.13;;;16.63
69785;BMP280;14177;51.520;6.764;2023-07-13T04:16:24;101231.97;;;16.61
69785;BMP280;14177;51.520;6.764;2023-07-13T04:18:51;101238.91;;;16.62
69785;BMP280;14177;51.520;6.764;2023-07-13T04:21:24;101238.00;;;16.63
69785;BMP280;14177;51.520;6.764;2023-07-13T04:23:52;101248.47;;;16.63
69785;BMP280;14177;51.520;6.764;2023-07-13T04:26:19;101246.69;;;16.64
69785;BMP280;14177;51.520;6.764;2023-07-13T04:29:04;101248.47;;;16.63
69785;BMP280;14177;51.520;6.764;2023-07-13T04:31:39;101250.34;;;16.61
69785;BMP280;14177;51.520;6.764;2023-07-13T04:34:07;101252.09;;;16.61
69785;BMP280;14177;51.520;6.764;2023-07-13T04:36:34;101242.38;;;16.63
69785;BMP280;14177;51.520;6.764;2023-07-13T04:39:04;101246.00;;;16.60
69785;BMP280;14177;51.520;6.764;2023-07-13T04:41:31;101259.19;;;16.59
69785;BMP280;14177;51.520;6.764;2023-07-13T04:43:58;101255.88;;;16.55
69785;BMP280;14177;51.520;6.764;2023-07-13T04:46:25;101256.66;;;16.57
69785;BMP280;14177;51.520;6.764;2023-07-13T04:48:52;101253.78;;;16.62
69785;BMP280;14177;51.520;6.764;2023-07-13T04:51:20;101249.31;;;16.64
69785;BMP280;14177;51.520;6.764;2023-07-13T04:53:48;101254.66;;;16.62
69785;BMP280;14177;51.520;6.764;2023-07-13T04:56:15;101253.00;;;16.60
69785;BMP280;14177;51.520;6.764;2023-07-13T04:58:42;101259.03;;;16.62
69785;BMP280;14177;51.520;6.764;2023-07-13T05:01:09;101255.44;;;16.64
69785;BMP280;14177;51.520;6.764;2023-07-13T05:03:37;101265.84;;;16.66
69785;BMP280;14177;51.520;6.764;2023-07-13T05:06:07;101254.50;;;16.65
69785;BMP280;14177;51.520;6.764;2023-07-13T05:08:38;101255.34;;;16.66
69785;BMP280;14177;51.520;6.764;2023-07-13T05:11:05;101264.13;;;16.65
69785;BMP280;14177;51.520;6.764;2023-07-13T05:13:34;101266.75;;;16.65
69785;BMP280;14177;51.520;6.764;2023-07-13T05:16:05;101267.69;;;16.64
69785;BMP280;14177;51.520;6.764;2023-07-13T05:18:36;101273.66;;;16.67
69785;BMP280;14177;51.520;6.764;2023-07-13T05:21:10;101277.88;;;16.70
69785;BMP280;14177;51.520;6.764;2023-07-13T05:23:39;101278.81;;;16.69
69785;BMP280;14177;51.520;6.764;2023-07-13T05:26:06;101282.28;;;16.69
69785;BMP280;14177;51.520;6.764;2023-07-13T05:28:36;101284.00;;;16.70
69785;BMP280;14177;51.520;6.764;2023-07-13T05:31:06;101276.19;;;16.69
69785;BMP280;14177;51.520;6.764;2023-07-13T05:33:33;101281.50;;;16.67
69785;BMP280;14177;51.520;6.764;2023-07-13T05:36:00;101290.06;;;16.71
69785;BMP280;14177;51.520;6.764;2023-07-13T05:38:28;101302.22;;;16.73
69785;BMP280;14177;51.520;6.764;2023-07-13T05:40:57;101295.88;;;16.77
69785;BMP280;14177;51.520;6.764;2023-07-13T05:43:25;101295.56;;;16.83
69785;BMP280;14177;51.520;6.764;2023-07-13T05:45:57;101302.31;;;16.89
69785;BMP280;14177;51.520;6.764;2023-07-13T05:48:24;101311.59;;;16.96
69785;BMP280;14177;51.520;6.764;2023-07-13T05:50:51;101319.22;;;17.00
69785;BMP280;14177;51.520;6.764;2023-07-13T05:53:18;101305.03;;;17.04
69785;BMP280;14177;51.520;6.764;2023-07-13T05:55:47;101304.88;;;17.07
69785;BMP280;14177;51.520;6.764;2023-07-13T05:58:15;101311.00;;;17.08
69785;BMP280;14177;51.520;6.764;2023-07-13T06:00:43;101306.34;;;17.12
69785;BMP280;14177;51.520;6.764;2023-07-13T06:03:10;101314.78;;;17.19
69785;BMP280;14177;51.520;6.764;2023-07-13T06:05:38;101316.03;;;17.29
69785;BMP280;14177;51.520;6.764;2023-07-13T06:08:08;101333.13;;;17.37
69785;BMP280;14177;51.520;6.764;2023-07-13T06:10:36;101326.72;;;17.43
69785;BMP280;14177;51.520;6.764;2023-07-13T06:13:03;101328.84;;;17.52
69785;BMP280;14177;51.520;6.764;2023-07-13T06:15:30;101324.06;;;17.60
69785;BMP280;14177;51.520;6.764;2023-07-13T06:17:56;101326.84;;;17.74
69785;BMP280;14177;51.520;6.764;2023-07-13T06:20:23;101339.50;;;17.83
69785;BMP280;14177;51.520;6.764;2023-07-13T06:22:50;101338.44;;;17.87
69785;BMP280;14177;51.520;6.764;2023-07-13T06:25:17;101335.69;;;17.88
69785;BMP280;14177;51.520;6.764;2023-07-13T06:27:44;101342.75;;;17.88
69785;BMP280;14177;51.520;6.764;2023-07-13T06:30:12;101339.97;;;17.91
69785;BMP280;14177;51.520;6.764;2023-07-13T06:32:39;101348.53;;;17.94
69785;BMP280;14177;51.520;6.764;2023-07-13T06:35:07;101349.22;;;17.98
69785;BMP280;14177;51.520;6.764;2023-07-13T06:37:34;101354.34;;;18.01
69785;BMP280;14177;51.520;6.764;2023-07-13T06:40:01;101360.03;;;18.09
69785;BMP280;14177;51.520;6.764;2023-07-13T06:42:28;101340.38;;;18.16
69785;BMP280;14177;51.520;6.764;2023-07-13T06:44:55;101368.97;;;18.22
69785;BMP280;14177;51.520;6.764;2023-07-13T06:47:22;101348.78;;;18.22
69785;BMP280;14177;51.520;6.764;2023-07-13T06:49:49;101356.44;;;18.27
69785;BMP280;14177;51.520;6.764;2023-07-13T06:52:16;101361.53;;;18.30
69785;BMP280;14177;51.520;6.764;2023-07-13T06:54:43;101363.84;;;18.35
69785;BMP280;14177;51.520;6.764;2023-07-13T06:57:10;101371.66;;;18.37
69785;BMP280;14177;51.520;6.764;2023-07-13T06:59:37;101366.41;;;18.37
69785;BMP280;14177;51.520;6.764;2023-07-13T07:02:05;101367.19;;;18.39
69785;BMP280;14177;51.520;6.764;2023-07-13T07:04:32;101368.19;;;18.36
69785;BMP280;14177;51.520;6.764;2023-07-13T07:06:59;101371.41;;;18.41
69785;BMP280;14177;51.520;6.764;2023-07-13T07:09:26;101371.25;;;18.44
69785;BMP280;14177;51.520;6.764;2023-07-13T07:11:53;101376.19;;;18.50
69785;BMP280;14177;51.520;6.764;2023-07-13T07:14:31;101375.84;;;18.56
69785;BMP280;14177;51.520;6.764;2023-07-13T07:16:58;101376.44;;;18.61
69785;BMP280;14177;51.520;6.764;2023-07-13T07:19:29;101384.19;;;18.64
69785;BMP280;14177;51.520;6.764;2023-07-13T07:21:56;101378.91;;;18.64
69785;BMP280;14177;51.520;6.764;2023-07-13T07:24:23;101380.94;;;18.75
69785;BMP280;14177;51.520;6.764;2023-07-13T07:26:50;101379.78;;;18.80
69785;BMP280;14177;51.520;6.764;2023-07-13T07:29:20;101384.28;;;18.78
69785;BMP280;14177;51.520;6.764;2023-07-13T07:31:50;101382.41;;;18.80
69785;BMP280;14177;51.520;6.764;2023-07-13T07:34:31;101377.19;;;18.94
69785;BMP280;14177;51.520;6.764;2023-07-13T07:37:02;101369.56;;;19.05
69785;BMP280;14177;51.520;6.764;2023-07-13T07:39:32;101387.75;;;19.25
69785;BMP280;14177;51.520;6.764;2023-07-13T07:41:59;101387.56;;;19.28
69785;BMP280;14177;51.520;6.764;2023-07-13T07:44:27;101378.91;;;19.26
69785;BMP280;14177;51.520;6.764;2023-07-13T07:46:55;101384.19;;;19.26
69785;BMP280;14177;51.520;6.764;2023-07-13T07:49:22;101378.75;;;19.29
69785;BMP280;14177;51.520;6.764;2023-07-13T07:51:49;101370.00;;;19.29
69785;BMP280;14177;51.520;6.764;2023-07-13T07:54:16;101378.38;;;19.35
69785;BMP280;14177;51.520;6.764;2023-07-13T07:57:04;101380.69;;;19.41
69785;BMP280;14177;51.520;6.764;2023-07-13T07:59:33;101381.75;;;19.53
69785;BMP280;14177;51.520;6.764;2023-07-13T08:02:04;101381.13;;;19.63
69785;BMP280;14177;51.520;6.764;2023-07-13T08:04:34;101381.97;;;19.63
69785;BMP280;14177;51.520;6.764;2023-07-13T08:07:04;101379.63;;;19.59
69785;BMP280;14177;51.520;6.764;2023-07-13T08:09:30;101374.53;;;19.70
69785;BMP280;14177;51.520;6.764;2023-07-13T08:11:57;101372.97;;;19.81
69785;BMP280;14177;51.520;6.764;2023-07-13T08:14:27;101370.31;;;20.11
69785;BMP280;14177;51.520;6.764;2023-07-13T08:17:13;101369.47;;;20.38
69785;BMP280;14177;51.520;6.764;2023-07-13T08:19:39;101367.09;;;20.48
69785;BMP280;14177;51.520;6.764;2023-07-13T08:22:06;101364.00;;;20.55
69785;BMP280;14177;51.520;6.764;2023-07-13T08:24:33;101362.94;;;20.58
69785;BMP280;14177;51.520;6.764;2023-07-13T08:27:00;101365.75;;;20.55
69785;BMP280;14177;51.520;6.764;2023-07-13T08:29:27;101364.25;;;20.51
69785;BMP280;14177;51.520;6.764;2023-07-13T08:31:54;101367.00;;;20.49
69785;BMP280;14177;51.520;6.764;2023-07-13T08:34:21;101363.22;;;20.53
69785;BMP280;14177;51.520;6.764;2023-07-13T08:36:48;101368.22;;;20.58
69785;BMP280;14177;51.520;6.764;2023-07-13T08:39:15;101373.84;;;20.66
69785;BMP280;14177;51.520;6.764;2023-07-13T08:41:45;101373.69;;;20.83
69785;BMP280;14177;51.520;6.764;2023-07-13T08:44:35;101369.66;;;21.03
69785;BMP280;14177;51.520;6.764;2023-07-13T08:47:06;101362.81;;;21.13
69785;BMP280;14177;51.520;6.764;2023-07-13T08:49:35;101362.72;;;21.15
69785;BMP280;14177;51.520;6.764;2023-07-13T08:52:29;101369.31;;;21.22
69785;BMP280;14177;51.520;6.764;2023-07-13T08:55:04;101356.19;;;21.20
69785;BMP280;14177;51.520;6.764;2023-07-13T08:57:34;101353.81;;;21.03
69785;BMP280;14177;51.520;6.764;2023-07-13T09:00:01;101359.47;;;21.11
69785;BMP280;14177;51.520;6.764;2023-07-13T09:02:42;101362.13;;;21.24
69785;BMP280;14177;51.520;6.764;2023-07-13T09:05:29;101356.66;;;21.39
69785;BMP280;14177;51.520;6.764;2023-07-13T09:08:34;101368.53;;;21.46
69785;BMP280;14177;51.520;6.764;2023-07-13T09:11:34;101372.94;;;21.33
69785;BMP280;14177;51.520;6.764;2023-07-13T09:14:50;101366.66;;;21.22
69785;BMP280;14177;51.520;6.764;2023-07-13T09:17:25;101375.63;;;21.19
69785;BMP280;14177;51.520;6.764;2023-07-13T09:20:25;101366.34;;;21.26
69785;BMP280;14177;51.520;6.764;2023-07-13T09:22:55;101368.19;;;21.38
69785;BMP280;14177;51.520;6.764;2023-07-13T09:25:37;101370.16;;;21.49
69785;BMP280;14177;51.520;6.764;2023-07-13T09:28:18;101371.81;;;21.76
69785;BMP280;14177;51.520;6.764;2023-07-13T09:31:04;101363.47;;;21.82
69785;BMP280;14177;51.520;6.764;2023-07-13T09:33:32;101372.34;;;21.94
69785;BMP280;14177;51.520;6.764;2023-07-13T09:36:23;101377.97;;;22.02
69785;BMP280;14177;51.520;6.764;2023-07-13T09:39:22;101378.13;;;21.86
69785;BMP280;14177;51.520;6.764;2023-07-13T09:44:51;101376.88;;;21.40
69785;BMP280;14177;51.520;6.764;2023-07-13T09:47:30;101369.78;;;21.14
69785;BMP280;14177;51.520;6.764;2023-07-13T09:50:06;101374.41;;;21.25
69785;BMP280;14177;51.520;6.764;2023-07-13T09:52:46;101370.31;;;21.72
69785;BMP280;14177;51.520;6.764;2023-07-13T09:55:39;101373.72;;;22.12
69785;BMP280;14177;51.520;6.764;2023-07-13T09:58:18;101369.09;;;22.40
69785;BMP280;14177;51.520;6.764;2023-07-13T10:01:04;101375.38;;;22.62
69785;BMP280;14177;51.520;6.764;2023-07-13T10:03:36;101368.41;;;22.61
69785;BMP280;14177;51.520;6.764;2023-07-13T10:06:18;101370.63;;;22.67
69785;BMP280;14177;51.520;6.764;2023-07-13T10:08:48;101380.56;;;23.00
69785;BMP280;14177;51.520;6.764;2023-07-13T10:11:23;101370.44;;;23.40
69785;BMP280;14177;51.520;6.764;2023-07-13T10:14:02;101370.22;;;23.43
69785;BMP280;14177;51.520;6.764;2023-07-13T10:16:33;101375.38;;;23.34
69785;BMP280;14177;51.520;6.764;2023-07-13T10:19:29;101375.41;;;23.45
69785;BMP280;14177;51.520;6.764;2023-07-13T10:22:09;101372.09;;;23.88
69785;BMP280;14177;51.520;6.764;2023-07-13T10:24:39;101375.50;;;23.78
69785;BMP280;14177;51.520;6.764;2023-07-13T10:27:15;101374.91;;;23.74
69785;BMP280;14177;51.520;6.764;2023-07-13T10:29:48;101369.84;;;23.71
69785;BMP280;14177;51.520;6.764;2023-07-13T10:32:25;101377.75;;;23.95
69785;BMP280;14177;51.520;6.764;2023-07-13T10:34:52;101370.53;;;23.97
69785;BMP280;14177;51.520;6.764;2023-07-13T10:37:30;101376.22;;;24.03
69785;BMP280;14177;51.520;6.764;2023-07-13T10:40:00;101359.72;;;24.33
69785;BMP280;14177;51.520;6.764;2023-07-13T10:42:35;101377.22;;;24.57
69785;BMP280;14177;51.520;6.764;2023-07-13T10:45:18;101367.88;;;24.41
69785;BMP280;14177;51.520;6.764;2023-07-13T10:47:47;101373.09;;;24.31
69785;BMP280;14177;51.520;6.764;2023-07-13T10:50:23;101364.16;;;24.43
69785;BMP280;14177;51.520;6.764;2023-07-13T10:53:01;101361.88;;;24.50
69785;BMP280;14177;51.520;6.764;2023-07-13T11:01:18;101367.41;;;24.14
69785;BMP280;14177;51.520;6.764;2023-07-13T11:04:01;101376.47;;;24.22
69785;BMP280;14177;51.520;6.764;2023-07-13T11:06:42;101375.72;;;24.09
69785;BMP280;14177;51.520;6.764;2023-07-13T11:09:39;101368.72;;;24.08
69785;BMP280;14177;51.520;6.764;2023-07-13T11:12:49;101366.81;;;24.32
69785;BMP280;14177;51.520;6.764;2023-07-13T11:17:38;101368.41;;;24.67
69785;BMP280;14177;51.520;6.764;2023-07-13T11:22:52;101372.75;;;25.33
69785;BMP280;14177;51.520;6.764;2023-07-13T11:25:35;101358.22;;;25.57
69785;BMP280;14177;51.520;6.764;2023-07-13T11:28:20;101369.50;;;25.81
69785;BMP280;14177;51.520;6.764;2023-07-13T11:36:14;101353.94;;;26.36
69785;BMP280;14177;51.520;6.764;2023-07-13T11:38:47;101352.13;;;26.57
69785;BMP280;14177;51.520;6.764;2023-07-13T11:41:26;101355.72;;;26.26
69785;BMP280;14177;51.520;6.764;2023-07-13T11:44:16;101358.13;;;25.79
69785;BMP280;14177;51.520;6.764;2023-07-13T11:46:53;101352.97;;;25.46
69785;BMP280;14177;51.520;6.764;2023-07-13T11:49:25;101352.91;;;25.57
69785;BMP280;14177;51.520;6.764;2023-07-13T11:51:54;101343.59;;;26.03
69785;BMP280;14177;51.520;6.764;2023-07-13T11:54:28;101344.84;;;26.09
69785;BMP280;14177;51.520;6.764;2023-07-13T11:57:01;101340.88;;;26.24
69785;BMP280;14177;51.520;6.764;2023-07-13T11:59:31;101342.16;;;26.59
69785;BMP280;14177;51.520;6.764;2023-07-13T12:02:00;101345.97;;;26.57
69785;BMP280;14177;51.520;6.764;2023-07-13T12:04:32;101348.34;;;26.39
69785;BMP280;14177;51.520;6.764;2023-07-13T12:07:16;101345.66;;;26.30
69785;BMP280;14177;51.520;6.764;2023-07-13T12:09:43;101333.94;;;26.12
69785;BMP280;14177;51.520;6.764;2023-07-13T12:12:18;101341.00;;;25.93
69785;BMP280;14177;51.520;6.764;2023-07-13T12:14:46;101341.81;;;25.93
69785;BMP280;14177;51.520;6.764;2023-07-13T12:17:24;101341.16;;;26.21
69785;BMP280;14177;51.520;6.764;2023-07-13T12:19:53;101340.06;;;26.33
69785;BMP280;14177;51.520;6.764;2023-07-13T12:22:20;101339.13;;;26.73
69785;BMP280;14177;51.520;6.764;2023-07-13T12:24:51;101334.66;;;27.02
69785;BMP280;14177;51.520;6.764;2023-07-13T12:27:27;101335.81;;;27.09
69785;BMP280;14177;51.520;6.764;2023-07-13T12:30:03;101341.03;;;26.62
69785;BMP280;14177;51.520;6.764;2023-07-13T12:32:32;101332.91;;;26.33
69785;BMP280;14177;51.520;6.764;2023-07-13T12:35:17;101336.50;;;25.93
69785;BMP280;14177;51.520;6.764;2023-07-13T12:37:49;101336.81;;;25.59
69785;BMP280;14177;51.520;6.764;2023-07-13T12:40:20;101350.59;;;25.32
69785;BMP280;14177;51.520;6.764;2023-07-13T12:42:51;101354.44;;;24.97
69785;BMP280;14177;51.520;6.764;2023-07-13T12:45:26;101358.25;;;24.62
69785;BMP280;14177;51.520;6.764;2023-07-13T12:48:04;101366.09;;;24.30
69785;BMP280;14177;51.520;6.764;2023-07-13T12:50:42;101391.41;;;24.12
69785;BMP280;14177;51.520;6.764;2023-07-13T12:53:28;101385.75;;;23.71
69785;BMP280;14177;51.520;6.764;2023-07-13T12:55:59;101395.25;;;23.39
69785;BMP280;14177;51.520;6.764;2023-07-13T12:58:41;101403.22;;;23.16
69785;BMP280;14177;51.520;6.764;2023-07-13T13:01:12;101397.88;;;22.93
69785;BMP280;14177;51.520;6.764;2023-07-13T13:03:46;101399.25;;;22.86
69785;BMP280;14177;51.520;6.764;2023-07-13T13:08:50;101415.59;;;22.80
69785;BMP280;14177;51.520;6.764;2023-07-13T13:11:19;101419.19;;;22.79
69785;BMP280;14177;51.520;6.764;2023-07-13T13:13:46;101405.94;;;22.79
69785;BMP280;14177;51.520;6.764;2023-07-13T13:16:19;101410.94;;;22.83
69785;BMP280;14177;51.520;6.764;2023-07-13T13:18:47;101416.41;;;22.93
69785;BMP280;14177;51.520;6.764;2023-07-13T13:21:16;101409.50;;;23.03
69785;BMP280;14177;51.520;6.764;2023-07-13T13:23:43;101411.50;;;23.12
69785;BMP280;14177;51.520;6.764;2023-07-13T13:26:15;101399.91;;;23.25
69785;BMP280;14177;51.520;6.764;2023-07-13T13:28:44;101409.03;;;23.44
69785;BMP280;14177;51.520;6.764;2023-07-13T13:31:12;101399.38;;;23.67
69785;BMP280;14177;51.520;6.764;2023-07-13T13:33:41;101404.38;;;23.82
69785;BMP280;14177;51.520;6.764;2023-07-13T13:36:16;101400.94;;;23.69
69785;BMP280;14177;51.520;6.764;2023-07-13T13:38:43;101392.84;;;23.71
69785;BMP280;14177;51.520;6.764;2023-07-13T13:41:13;101403.44;;;23.71
69785;BMP280;14177;51.520;6.764;2023-07-13T13:43:42;101397.88;;;23.52
69785;BMP280;14177;51.520;6.764;2023-07-13T13:46:21;101400.47;;;23.41
69785;BMP280;14177;51.520;6.764;2023-07-13T13:48:49;101404.38;;;23.25
69785;BMP280;14177;51.520;6.764;2023-07-13T13:51:21;101409.91;;;23.09
69785;BMP280;14177;51.520;6.764;2023-07-13T13:53:51;101417.97;;;22.95
69785;BMP280;14177;51.520;6.764;2023-07-13T13:56:19;101414.94;;;22.89
69785;BMP280;14177;51.520;6.764;2023-07-13T13:58:46;101416.84;;;22.87
69785;BMP280;14177;51.520;6.764;2023-07-13T14:01:21;101416.84;;;22.87
69785;BMP280;14177;51.520;6.764;2023-07-13T14:03:50;101424.34;;;22.93
69785;BMP280;14177;51.520;6.764;2023-07-13T14:06:22;101419.97;;;23.04
69785;BMP280;14177;51.520;6.764;2023-07-13T14:08:49;101422.06;;;23.24
69785;BMP280;14177;51.520;6.764;2023-07-13T14:11:20;101426.31;;;23.27
69785;BMP280;14177;51.520;6.764;2023-07-13T14:13:55;101418.91;;;23.42
69785;BMP280;14177;51.520;6.764;2023-07-13T14:16:31;101405.41;;;23.45
69785;BMP280;14177;51.520;6.764;2023-07-13T14:18:59;101409.56;;;23.60
69785;BMP280;14177;51.520;6.764;2023-07-13T14:21:29;101419.59;;;23.57
69785;BMP280;14177;51.520;6.764;2023-07-13T14:23:56;101414.56;;;23.41
69785;BMP280;14177;51.520;6.764;2023-07-13T14:26:26;101404.63;;;23.33
69785;BMP280;14177;51.520;6.764;2023-07-13T14:28:56;101405.88;;;23.39
69785;BMP280;14177;51.520;6.764;2023-07-13T14:31:27;101405.38;;;23.58
69785;BMP280;14177;51.520;6.764;2023-07-13T14:33:58;101406.06;;;23.83
69785;BMP280;14177;51.520;6.764;2023-07-13T14:36:31;101401.22;;;24.23
69785;BMP280;14177;51.520;6.764;2023-07-13T14:39:05;101391.22;;;24.48
69785;BMP280;14177;51.520;6.764;2023-07-13T14:41:36;101393.13;;;24.79
69785;BMP280;14177;51.520;6.764;2023-07-13T14:44:16;101389.22;;;25.05